Time,TemperatureF,DewpointF,PressureIn,WindDirection,WindDirectionDegrees,WindSpeedMPH,WindSpeedGustMPH,Humidity,HourlyPrecipIn,Conditions,Clouds,dailyrainin,SoftwareType,DateUTC
2013-03-22 00:03:00,26.0,16.0,29.84,NW,316,0.0,2.0,64,0.00,,,0.07,,2013-03-22 04:03:00,
2013-03-22 00:12:00,26.0,16.0,29.84,NW,316,0.0,2.0,64,0.00,,,0.07,,2013-03-22 04:12:00,
2013-03-22 00:23:00,26.0,16.0,29.84,NW,316,0.0,2.0,64,0.00,,,0.07,,2013-03-22 04:23:00,
2013-03-22 00:32:00,25.0,15.0,29.83,NW,316,0.0,3.0,66,0.00,,,0.07,,2013-03-22 04:32:00,
2013-03-22 00:43:00,25.0,15.0,29.83,NW,316,0.0,3.0,66,0.00,,,0.07,,2013-03-22 04:43:00,
2013-03-22 00:52:00,25.0,15.0,29.83,NW,316,0.0,3.0,66,0.00,,,0.07,,2013-03-22 04:52:00,
2013-03-22 01:02:00,25.0,14.0,29.84,NNW,328,0.0,2.0,63,0.00,,,0.07,,2013-03-22 05:02:00,
2013-03-22 01:12:00,25.0,14.0,29.84,NNW,328,0.0,2.0,63,0.00,,,0.07,,2013-03-22 05:12:00,
2013-03-22 01:22:00,25.0,14.0,29.84,NNW,328,0.0,2.0,63,0.00,,,0.07,,2013-03-22 05:22:00,
2013-03-22 01:32:00,25.0,13.0,29.86,NNW,344,0.0,1.0,61,0.00,,,0.07,,2013-03-22 05:32:00,
2013-03-22 01:42:00,25.0,13.0,29.86,NNW,344,0.0,1.0,61,0.00,,,0.07,,2013-03-22 05:42:00,
2013-03-22 01:52:00,25.0,13.0,29.86,NNW,344,0.0,1.0,61,0.00,,,0.07,,2013-03-22 05:52:00,
2013-03-22 02:02:00,25.0,13.0,29.86,NNW,344,0.0,0.0,59,0.00,,,0.07,,2013-03-22 06:02:00,
2013-03-22 02:13:00,25.0,13.0,29.86,NNW,344,0.0,0.0,59,0.00,,,0.07,,2013-03-22 06:13:00,
2013-03-22 02:22:00,25.0,13.0,29.86,NNW,344,0.0,0.0,59,0.00,,,0.07,,2013-03-22 06:22:00,
2013-03-22 02:32:00,24.0,14.0,29.86,NNW,340,0.0,2.0,65,0.00,,,0.07,,2013-03-22 06:32:00,
2013-03-22 02:42:00,24.0,14.0,29.86,NNW,340,0.0,2.0,65,0.00,,,0.07,,2013-03-22 06:42:00,
2013-03-22 02:52:00,24.0,14.0,29.86,NNW,340,0.0,2.0,65,0.00,,,0.07,,2013-03-22 06:52:00,
2013-03-22 03:03:00,24.0,13.0,29.87,NNW,332,0.0,0.0,62,0.00,,,0.07,,2013-03-22 07:03:00,
2013-03-22 03:12:00,24.0,13.0,29.87,NNW,332,0.0,0.0,62,0.00,,,0.07,,2013-03-22 07:12:00,
2013-03-22 03:22:00,24.0,13.0,29.87,NNW,332,0.0,0.0,62,0.00,,,0.07,,2013-03-22 07:22:00,
2013-03-22 03:32:00,24.0,14.0,29.87,NNW,332,0.0,0.0,66,0.00,,,0.07,,2013-03-22 07:32:00,
2013-03-22 03:42:00,24.0,14.0,29.87,NNW,332,0.0,0.0,66,0.00,,,0.07,,2013-03-22 07:42:00,
2013-03-22 03:52:00,24.0,14.0,29.87,NNW,332,0.0,0.0,66,0.00,,,0.07,,2013-03-22 07:52:00,
2013-03-22 04:03:00,23.0,12.0,29.85,NNW,332,0.0,0.0,62,0.00,,,0.07,,2013-03-22 08:03:00,
2013-03-22 04:13:00,23.0,12.0,29.85,NNW,332,0.0,0.0,62,0.00,,,0.07,,2013-03-22 08:13:00,
2013-03-22 04:22:00,23.0,12.0,29.85,NNW,332,0.0,0.0,62,0.00,,,0.07,,2013-03-22 08:22:00,
2013-03-22 04:32:00,23.0,12.0,29.86,NNW,332,0.0,0.0,62,0.00,,,0.07,,2013-03-22 08:32:00,
2013-03-22 04:42:00,23.0,12.0,29.86,NNW,332,0.0,0.0,62,0.00,,,0.07,,2013-03-22 08:42:00,
2013-03-22 04:52:00,23.0,12.0,29.86,NNW,332,0.0,0.0,62,0.00,,,0.07,,2013-03-22 08:52:00,
2013-03-22 05:02:00,23.0,13.0,29.86,NNW,332,0.0,0.0,64,0.00,,,0.07,,2013-03-22 09:02:00,
2013-03-22 05:12:00,23.0,13.0,29.86,NNW,332,0.0,0.0,64,0.00,,,0.07,,2013-03-22 09:12:00,
2013-03-22 05:22:00,23.0,13.0,29.86,NNW,332,0.0,0.0,64,0.00,,,0.07,,2013-03-22 09:22:00,
2013-03-22 05:32:00,23.0,13.0,29.87,NNW,332,0.0,0.0,64,0.00,,,0.07,,2013-03-22 09:32:00,
2013-03-22 05:42:00,23.0,13.0,29.87,NNW,332,0.0,0.0,64,0.00,,,0.07,,2013-03-22 09:42:00,
2013-03-22 05:53:00,23.0,13.0,29.87,NNW,332,0.0,0.0,64,0.00,,,0.07,,2013-03-22 09:53:00,
2013-03-22 06:04:00,23.0,14.0,29.87,NNW,332,0.0,0.0,68,0.00,,,0.07,,2013-03-22 10:04:00,
2013-03-22 06:12:00,23.0,14.0,29.87,NNW,332,0.0,0.0,68,0.00,,,0.07,,2013-03-22 10:12:00,
2013-03-22 06:23:00,23.0,14.0,29.87,NNW,332,0.0,0.0,68,0.00,,,0.07,,2013-03-22 10:23:00,
2013-03-22 06:33:00,23.0,15.0,29.88,NNW,332,0.0,0.0,70,0.00,,,0.07,,2013-03-22 10:33:00,
2013-03-22 06:42:00,23.0,15.0,29.88,NNW,332,0.0,0.0,70,0.00,,,0.07,,2013-03-22 10:42:00,
2013-03-22 06:52:00,23.0,15.0,29.88,NNW,332,0.0,0.0,70,0.00,,,0.07,,2013-03-22 10:52:00,
2013-03-22 07:03:00,23.0,15.0,29.89,NNW,332,0.0,0.0,71,0.00,,,0.07,,2013-03-22 11:03:00,
2013-03-22 07:12:00,23.0,15.0,29.89,NNW,332,0.0,0.0,71,0.00,,,0.07,,2013-03-22 11:12:00,
2013-03-22 07:22:00,23.0,15.0,29.89,NNW,332,0.0,0.0,71,0.00,,,0.07,,2013-03-22 11:22:00,
2013-03-22 07:33:00,23.0,15.0,29.90,NNW,332,0.0,0.0,71,0.00,,,0.07,,2013-03-22 11:33:00,
2013-03-22 07:52:00,23.0,15.0,29.90,NNW,332,0.0,0.0,71,0.00,,,0.07,,2013-03-22 11:52:00,
2013-03-22 08:02:00,23.0,16.0,29.91,NNW,332,0.0,0.0,75,0.00,,,0.07,,2013-03-22 12:02:00,
2013-03-22 08:12:00,23.0,16.0,29.91,NNW,332,0.0,0.0,75,0.00,,,0.07,,2013-03-22 12:12:00,
2013-03-22 08:22:00,23.0,16.0,29.91,NNW,332,0.0,0.0,75,0.00,,,0.07,,2013-03-22 12:22:00,
2013-03-22 08:32:00,23.0,17.0,29.92,NNW,332,0.0,0.0,77,0.00,,,0.07,,2013-03-22 12:32:00,
2013-03-22 08:42:00,23.0,17.0,29.92,NNW,332,0.0,0.0,77,0.00,,,0.07,,2013-03-22 12:42:00,
2013-03-22 08:52:00,23.0,17.0,29.92,NNW,332,0.0,0.0,77,0.00,,,0.07,,2013-03-22 12:52:00,
2013-03-22 09:02:00,24.0,15.0,29.92,NNW,332,0.0,0.0,67,0.00,,,0.04,,2013-03-22 13:02:00,
2013-03-22 09:12:00,24.0,15.0,29.92,NNW,332,0.0,0.0,67,0.00,,,0.04,,2013-03-22 13:12:00,
2013-03-22 09:22:00,24.0,15.0,29.92,NNW,332,0.0,0.0,67,0.00,,,0.04,,2013-03-22 13:22:00,
2013-03-22 09:32:00,27.0,15.0,29.92,NNW,332,0.0,0.0,60,0.00,,,0.04,,2013-03-22 13:32:00,
2013-03-22 09:42:00,27.0,15.0,29.92,NNW,332,0.0,0.0,60,0.00,,,0.04,,2013-03-22 13:42:00,
2013-03-22 09:53:00,27.0,15.0,29.92,NNW,332,0.0,0.0,60,0.00,,,0.04,,2013-03-22 13:53:00,
2013-03-22 10:03:00,31.0,16.0,29.91,NNW,340,0.0,0.0,53,0.00,,,0.04,,2013-03-22 14:03:00,
2013-03-22 10:12:00,31.0,16.0,29.91,NNW,340,0.0,0.0,53,0.00,,,0.04,,2013-03-22 14:12:00,
2013-03-22 10:22:00,31.0,16.0,29.91,NNW,340,0.0,0.0,53,0.00,,,0.04,,2013-03-22 14:22:00,
2013-03-22 10:32:00,35.0,17.0,29.92,East,88,3.0,5.0,48,0.00,,,0.04,,2013-03-22 14:32:00,
2013-03-22 10:42:00,35.0,17.0,29.92,East,88,3.0,5.0,48,0.00,,,0.04,,2013-03-22 14:42:00,
2013-03-22 10:52:00,35.0,17.0,29.92,East,88,3.0,5.0,48,0.00,,,0.04,,2013-03-22 14:52:00,
2013-03-22 11:03:00,33.0,17.0,29.93,East,85,0.0,3.0,51,0.00,,,0.01,,2013-03-22 15:03:00,
2013-03-22 11:12:00,33.0,17.0,29.93,East,85,0.0,3.0,51,0.00,,,0.01,,2013-03-22 15:12:00,
2013-03-22 11:22:00,33.0,17.0,29.93,East,85,0.0,3.0,51,0.00,,,0.01,,2013-03-22 15:22:00,
2013-03-22 11:33:00,32.0,17.0,29.93,South,178,0.0,1.0,54,0.00,,,0.01,,2013-03-22 15:33:00,
2013-03-22 11:42:00,32.0,17.0,29.93,South,178,0.0,1.0,54,0.00,,,0.01,,2013-03-22 15:42:00,
2013-03-22 11:53:00,32.0,17.0,29.93,South,178,0.0,1.0,54,0.00,,,0.01,,2013-03-22 15:53:00,
2013-03-22 12:03:00,34.0,18.0,29.92,East,86,0.0,1.0,51,0.00,,,0.00,,2013-03-22 16:03:00,
2013-03-22 12:13:00,34.0,18.0,29.92,East,86,0.0,1.0,51,0.00,,,0.00,,2013-03-22 16:13:00,
2013-03-22 12:23:00,34.0,18.0,29.92,East,86,0.0,1.0,51,0.00,,,0.00,,2013-03-22 16:23:00,
2013-03-22 12:32:00,36.0,18.0,29.92,East,95,1.0,2.0,48,0.00,,,0.00,,2013-03-22 16:32:00,
2013-03-22 12:42:00,36.0,18.0,29.92,East,95,1.0,2.0,48,0.00,,,0.00,,2013-03-22 16:42:00,
2013-03-22 12:52:00,36.0,18.0,29.92,East,95,1.0,2.0,48,0.00,,,0.00,,2013-03-22 16:52:00,
2013-03-22 13:03:00,37.0,18.0,29.91,SE,141,1.0,3.0,46,0.00,,,0.00,,2013-03-22 17:03:00,
2013-03-22 13:12:00,37.0,18.0,29.91,SE,141,1.0,3.0,46,0.00,,,0.00,,2013-03-22 17:12:00,
2013-03-22 13:23:00,37.0,18.0,29.91,SE,141,1.0,3.0,46,0.00,,,0.00,,2013-03-22 17:23:00,
2013-03-22 13:32:00,40.0,19.0,29.90,East,92,1.0,3.0,43,0.00,,,0.00,,2013-03-22 17:32:00,
2013-03-22 13:42:00,40.0,19.0,29.90,East,92,1.0,3.0,43,0.00,,,0.00,,2013-03-22 17:42:00,
2013-03-22 13:53:00,40.0,19.0,29.90,East,92,1.0,3.0,43,0.00,,,0.00,,2013-03-22 17:53:00,
2013-03-22 14:02:00,43.0,19.0,29.90,ESE,102,1.0,3.0,38,0.00,,,0.00,,2013-03-22 18:02:00,
2013-03-22 14:12:00,43.0,19.0,29.90,ESE,102,1.0,3.0,38,0.00,,,0.00,,2013-03-22 18:12:00,
2013-03-22 14:22:00,43.0,19.0,29.90,ESE,102,1.0,3.0,38,0.00,,,0.00,,2013-03-22 18:22:00,
2013-03-22 14:33:00,45.0,16.0,29.91,East,92,0.0,5.0,31,0.00,,,0.00,,2013-03-22 18:33:00,
2013-03-22 14:42:00,45.0,16.0,29.91,East,92,0.0,5.0,31,0.00,,,0.00,,2013-03-22 18:42:00,
2013-03-22 14:52:00,45.0,16.0,29.91,East,92,0.0,5.0,31,0.00,,,0.00,,2013-03-22 18:52:00,
2013-03-22 15:02:00,47.0,17.0,29.88,SSE,164,0.0,4.0,30,0.00,,,0.00,,2013-03-22 19:02:00,
2013-03-22 15:12:00,47.0,17.0,29.88,SSE,164,0.0,4.0,30,0.00,,,0.00,,2013-03-22 19:12:00,
2013-03-22 15:22:00,47.0,17.0,29.88,SSE,164,0.0,4.0,30,0.00,,,0.00,,2013-03-22 19:22:00,
2013-03-22 15:32:00,46.0,17.0,29.88,ESE,103,0.0,8.0,31,0.00,,,0.00,,2013-03-22 19:32:00,
2013-03-22 15:42:00,46.0,17.0,29.88,ESE,103,0.0,8.0,31,0.00,,,0.00,,2013-03-22 19:42:00,
2013-03-22 15:52:00,46.0,17.0,29.88,ESE,103,0.0,8.0,31,0.00,,,0.00,,2013-03-22 19:52:00,
2013-03-22 16:02:00,45.0,20.0,29.88,ESE,106,1.0,5.0,37,0.00,,,0.00,,2013-03-22 20:02:00,
2013-03-22 16:12:00,45.0,20.0,29.88,ESE,106,1.0,5.0,37,0.00,,,0.00,,2013-03-22 20:12:00,
2013-03-22 16:22:00,45.0,20.0,29.88,ESE,106,1.0,5.0,37,0.00,,,0.00,,2013-03-22 20:22:00,
2013-03-22 16:32:00,45.0,22.0,29.88,WSW,257,0.0,5.0,39,0.00,,,0.00,,2013-03-22 20:32:00,
2013-03-22 16:43:00,45.0,22.0,29.88,WSW,257,0.0,5.0,39,0.00,,,0.00,,2013-03-22 20:43:00,
2013-03-22 16:52:00,45.0,22.0,29.88,WSW,257,0.0,5.0,39,0.00,,,0.00,,2013-03-22 20:52:00,
2013-03-22 17:03:00,46.0,24.0,29.88,East,96,0.0,4.0,42,0.00,,,0.00,,2013-03-22 21:03:00,
2013-03-22 17:12:00,46.0,24.0,29.88,East,96,0.0,4.0,42,0.00,,,0.00,,2013-03-22 21:12:00,
2013-03-22 17:22:00,46.0,24.0,29.88,East,96,0.0,4.0,42,0.00,,,0.00,,2013-03-22 21:22:00,
2013-03-22 17:33:00,46.0,25.0,29.87,East,88,0.0,2.0,44,0.00,,,0.00,,2013-03-22 21:33:00,
2013-03-22 17:43:00,46.0,25.0,29.87,East,88,0.0,2.0,44,0.00,,,0.00,,2013-03-22 21:43:00,
2013-03-22 17:53:00,46.0,25.0,29.87,East,88,0.0,2.0,44,0.00,,,0.00,,2013-03-22 21:53:00,
2013-03-22 18:03:00,46.0,25.0,29.87,East,88,0.0,2.0,44,0.00,,,0.00,,2013-03-22 22:03:00,
2013-03-22 18:32:00,44.0,23.0,29.88,East,80,0.0,4.0,44,0.00,,,0.00,,2013-03-22 22:32:00,
2013-03-22 18:43:00,44.0,23.0,29.88,East,80,0.0,4.0,44,0.00,,,0.00,,2013-03-22 22:43:00,
2013-03-22 18:53:00,44.0,23.0,29.88,East,80,0.0,4.0,44,0.00,,,0.00,,2013-03-22 22:53:00,
2013-03-22 19:02:00,44.0,24.0,29.88,East,86,0.0,2.0,45,0.00,,,0.00,,2013-03-22 23:02:00,
2013-03-22 19:12:00,44.0,24.0,29.88,East,86,0.0,2.0,45,0.00,,,0.00,,2013-03-22 23:12:00,
2013-03-22 19:22:00,44.0,24.0,29.88,East,86,0.0,2.0,45,0.00,,,0.00,,2013-03-22 23:22:00,
2013-03-22 19:32:00,43.0,24.0,29.87,WNW,289,0.0,1.0,47,0.00,,,0.00,,2013-03-22 23:32:00,
2013-03-22 19:42:00,43.0,24.0,29.87,WNW,289,0.0,1.0,47,0.00,,,0.00,,2013-03-22 23:42:00,
2013-03-22 19:52:00,43.0,24.0,29.87,WNW,289,0.0,1.0,47,0.00,,,0.00,,2013-03-22 23:52:00,
2013-03-22 20:02:00,42.0,23.0,29.88,SSW,206,0.0,1.0,47,0.00,,,0.00,,2013-03-23 00:02:00,
2013-03-22 20:12:00,42.0,23.0,29.88,SSW,206,0.0,1.0,47,0.00,,,0.00,,2013-03-23 00:12:00,
2013-03-22 20:23:00,42.0,23.0,29.88,SSW,206,0.0,1.0,47,0.00,,,0.00,,2013-03-23 00:23:00,
2013-03-22 20:33:00,41.0,24.0,29.89,SSW,206,0.0,0.0,50,0.00,,,0.00,,2013-03-23 00:33:00,
2013-03-22 20:42:00,41.0,24.0,29.89,SSW,206,0.0,0.0,50,0.00,,,0.00,,2013-03-23 00:42:00,
2013-03-22 20:52:00,41.0,24.0,29.89,SSW,206,0.0,0.0,50,0.00,,,0.00,,2013-03-23 00:52:00,
2013-03-22 21:03:00,41.0,25.0,29.89,SSW,206,0.0,0.0,53,0.00,,,0.00,,2013-03-23 01:03:00,
2013-03-22 21:12:00,41.0,25.0,29.89,SSW,206,0.0,0.0,53,0.00,,,0.00,,2013-03-23 01:12:00,
2013-03-22 21:22:00,41.0,25.0,29.89,SSW,206,0.0,0.0,53,0.00,,,0.00,,2013-03-23 01:22:00,
2013-03-22 21:32:00,40.0,25.0,29.91,SSW,206,0.0,0.0,55,0.00,,,0.00,,2013-03-23 01:32:00,
2013-03-22 21:42:00,40.0,25.0,29.91,SSW,206,0.0,0.0,55,0.00,,,0.00,,2013-03-23 01:42:00,
2013-03-22 21:52:00,40.0,25.0,29.91,SSW,206,0.0,0.0,55,0.00,,,0.00,,2013-03-23 01:52:00,
2013-03-22 22:02:00,39.0,25.0,29.91,SSW,206,0.0,0.0,58,0.00,,,0.00,,2013-03-23 02:02:00,
2013-03-22 22:12:00,39.0,25.0,29.91,SSW,206,0.0,0.0,58,0.00,,,0.00,,2013-03-23 02:12:00,
2013-03-22 22:22:00,39.0,25.0,29.91,SSW,206,0.0,0.0,58,0.00,,,0.00,,2013-03-23 02:22:00,
2013-03-22 22:32:00,39.0,25.0,29.93,SSW,206,0.0,1.0,56,0.00,,,0.00,,2013-03-23 02:32:00,
2013-03-22 22:42:00,39.0,25.0,29.93,SSW,206,0.0,1.0,56,0.00,,,0.00,,2013-03-23 02:42:00,
2013-03-22 22:52:00,39.0,25.0,29.93,SSW,206,0.0,1.0,56,0.00,,,0.00,,2013-03-23 02:52:00,
2013-03-22 23:02:00,39.0,25.0,29.93,SSW,206,0.0,2.0,58,0.00,,,0.00,,2013-03-23 03:02:00,
2013-03-22 23:12:00,39.0,25.0,29.93,SSW,206,0.0,2.0,58,0.00,,,0.00,,2013-03-23 03:12:00,
2013-03-22 23:23:00,39.0,25.0,29.93,SSW,206,0.0,2.0,58,0.00,,,0.00,,2013-03-23 03:23:00,
2013-03-22 23:33:00,38.0,25.0,29.92,SE,145,0.0,0.0,58,0.00,,,0.00,,2013-03-23 03:33:00,
2013-03-22 23:43:00,38.0,25.0,29.92,SE,145,0.0,0.0,58,0.00,,,0.00,,2013-03-23 03:43:00,
2013-03-22 23:53:00,38.0,25.0,29.92,SE,145,0.0,0.0,58,0.00,,,0.00,,2013-03-23 03:53:00,